createdAt,value
2023-04-02T00:02:22.981Z,3.70
2023-04-02T00:05:20.941Z,3.72
2023-04-02T00:07:51.618Z,3.20
2023-04-02T00:10:35.192Z,4.30
2023-04-02T00:13:10.480Z,3.55
2023-04-02T00:15:38.975Z,4.00
2023-04-02T00:18:06.667Z,3.90
2023-04-02T00:20:38.605Z,3.45
2023-04-02T00:23:06.649Z,2.83
2023-04-02T00:25:43.248Z,4.18
2023-04-02T00:28:19.022Z,3.35
2023-04-02T00:30:48.026Z,3.47
2023-04-02T00:33:18.450Z,3.45
2023-04-02T00:38:32.237Z,3.60
2023-04-02T00:41:02.788Z,3.42
2023-04-02T00:43:35.804Z,3.50
2023-04-02T00:46:14.572Z,3.65
2023-04-02T00:49:08.889Z,3.60
2023-04-02T00:51:44.556Z,4.03
2023-04-02T00:54:15.707Z,3.65
2023-04-02T00:56:48.783Z,3.70
2023-04-02T00:59:29.670Z,4.88
2023-04-02T01:02:14.784Z,4.10
2023-04-02T01:04:56.951Z,3.75
2023-04-02T01:07:42.432Z,4.30
2023-04-02T01:10:23.060Z,3.10
2023-04-02T01:13:36.289Z,2.63
2023-04-02T01:16:25.867Z,2.67
2023-04-02T01:19:13.559Z,2.85
2023-04-02T01:22:09.487Z,3.10
2023-04-02T01:24:39.032Z,3.97
2023-04-02T01:27:16.391Z,3.63
2023-04-02T01:29:48.578Z,3.97
2023-04-02T01:32:19.686Z,3.30
2023-04-02T01:34:48.558Z,3.42
2023-04-02T01:37:24.024Z,2.50
2023-04-02T01:40:20.730Z,3.28
2023-04-02T01:43:22.182Z,3.50
2023-04-02T01:45:49.634Z,3.13
2023-04-02T01:48:24.577Z,3.75
2023-04-02T01:50:54.877Z,3.45
2023-04-02T01:53:24.351Z,2.42
2023-04-02T01:55:53.994Z,2.60
2023-04-02T01:58:27.434Z,2.95
2023-04-02T02:01:21.947Z,3.85
2023-04-02T02:03:51.779Z,3.40
2023-04-02T02:06:19.427Z,2.70
2023-04-02T02:08:53.242Z,3.25
2023-04-02T02:11:23.108Z,3.42
2023-04-02T02:13:58.991Z,3.25
2023-04-02T02:16:31.779Z,3.95
2023-04-02T02:19:02.921Z,4.38
2023-04-02T02:21:48.352Z,3.63
2023-04-02T02:24:21.692Z,3.17
2023-04-02T02:26:55.284Z,2.75
2023-04-02T02:29:26.298Z,3.38
2023-04-02T02:31:55.833Z,2.72
2023-04-02T02:34:29.741Z,2.75
2023-04-02T02:37:06.960Z,2.50
2023-04-02T02:39:39.152Z,2.65
2023-04-02T02:42:22.553Z,3.50
2023-04-02T02:44:51.943Z,3.20
2023-04-02T02:47:36.756Z,3.20
2023-04-02T02:50:10.355Z,2.92
2023-04-02T02:52:39.258Z,2.60
2023-04-02T02:55:14.739Z,3.60
2023-04-02T02:58:06.913Z,2.53
2023-04-02T03:00:42.302Z,3.05
2023-04-02T03:03:21.865Z,2.47
2023-04-02T03:06:03.224Z,2.60
2023-04-02T03:08:37.045Z,2.80
2023-04-02T03:11:11.733Z,2.80
2023-04-02T03:13:42.802Z,2.53
2023-04-02T03:16:34.880Z,3.15
2023-04-02T03:19:16.327Z,2.58
2023-04-02T03:21:48.632Z,2.65
2023-04-02T03:24:45.890Z,2.20
2023-04-02T03:27:20.506Z,3.35
2023-04-02T03:30:23.071Z,2.45
2023-04-02T03:32:54.418Z,2.72
2023-04-02T03:35:35.466Z,2.42
2023-04-02T03:38:18.065Z,2.63
2023-04-02T03:41:03.529Z,2.55
2023-04-02T03:43:40.746Z,2.50
2023-04-02T03:46:32.298Z,3.13
2023-04-02T03:49:12.488Z,2.92
2023-04-02T03:52:05.199Z,2.20
2023-04-02T03:54:33.155Z,3.13
2023-04-02T03:57:00.943Z,3.50
2023-04-02T03:59:42.653Z,2.33
2023-04-02T04:02:33.448Z,2.65
2023-04-02T04:05:03.562Z,2.80
2023-04-02T04:07:38.457Z,3.72
2023-04-02T04:10:07.733Z,3.03
2023-04-02T04:12:43.509Z,2.67
2023-04-02T04:15:21.350Z,1.65
2023-04-02T04:18:10.359Z,2.88
2023-04-02T04:20:57.261Z,1.83
2023-04-02T04:23:37.541Z,1.52
2023-04-02T04:26:21.053Z,2.55
2023-04-02T04:29:15.520Z,2.00
2023-04-02T04:31:55.691Z,1.80
2023-04-02T04:34:46.909Z,2.65
2023-04-02T04:37:21.667Z,1.85
2023-04-02T04:39:56.321Z,1.92
2023-04-02T04:42:29.153Z,2.03
2023-04-02T04:45:16.821Z,1.40
2023-04-02T04:48:08.166Z,1.77
2023-04-02T04:50:42.594Z,2.67
2023-04-02T04:53:17.238Z,1.88
2023-04-02T04:55:47.725Z,1.65
2023-04-02T04:58:35.944Z,1.77
2023-04-02T05:01:10.509Z,1.13
2023-04-02T05:03:58.405Z,1.75
2023-04-02T05:06:41.138Z,1.42
2023-04-02T05:09:41.402Z,1.50
2023-04-02T05:12:37.896Z,1.00
2023-04-02T05:15:33.968Z,0.75
2023-04-02T05:18:27.510Z,0.90
2023-04-02T05:21:07.090Z,0.50
2023-04-02T05:23:40.201Z,0.40
2023-04-02T05:26:18.915Z,0.32
2023-04-02T05:29:05.786Z,0.43
2023-04-02T05:31:54.374Z,1.50
2023-04-02T05:34:29.936Z,0.60
2023-04-02T05:36:58.572Z,0.35
2023-04-02T05:39:27.263Z,0.35
2023-04-02T05:42:06.424Z,0.57
2023-04-02T05:45:05.049Z,0.45
2023-04-02T05:47:33.597Z,0.43
2023-04-02T05:50:05.836Z,0.55
2023-04-02T05:52:43.126Z,0.32
2023-04-02T05:55:12.624Z,0.30
2023-04-02T05:58:35.461Z,0.43
2023-04-02T06:01:30.897Z,0.68
2023-04-02T06:04:16.159Z,0.40
2023-04-02T06:06:47.263Z,0.43
2023-04-02T06:09:28.853Z,0.50
2023-04-02T06:12:44.532Z,0.35
2023-04-02T06:15:19.027Z,0.63
2023-04-02T06:17:51.374Z,0.45
2023-04-02T06:20:20.924Z,0.60
2023-04-02T06:22:52.828Z,0.30
2023-04-02T06:25:40.516Z,0.32
2023-04-02T06:28:17.122Z,0.57
2023-04-02T06:30:55.114Z,0.43
2023-04-02T06:33:22.082Z,0.45
2023-04-02T06:35:53.346Z,0.52
2023-04-02T06:38:30.658Z,0.52
2023-04-02T06:41:00.838Z,0.43
2023-04-02T06:43:49.506Z,0.68
2023-04-02T06:46:34.431Z,0.77
2023-04-02T06:49:23.749Z,0.75
2023-04-02T06:51:56.840Z,0.52
2023-04-02T06:54:24.672Z,0.55
2023-04-02T06:56:57.334Z,0.65
2023-04-02T06:59:27.985Z,0.75
2023-04-02T07:02:00.862Z,0.65
2023-04-02T07:04:35.499Z,1.00
2023-04-02T07:07:02.929Z,1.00
2023-04-02T07:09:33.664Z,0.93
2023-04-02T07:12:10.806Z,0.60
2023-04-02T07:14:40.011Z,1.00
2023-04-02T07:17:07.830Z,1.33
2023-04-02T07:19:34.385Z,0.98
2023-04-02T07:22:00.858Z,1.13
2023-04-02T07:24:33.128Z,1.15
2023-04-02T07:26:59.645Z,1.27
2023-04-02T07:29:26.267Z,1.48
2023-04-02T07:31:53.886Z,1.23
2023-04-02T07:34:22.597Z,1.08
2023-04-02T07:40:40.980Z,1.02
2023-04-02T07:43:08.478Z,0.68
2023-04-02T07:48:42.040Z,0.55
2023-04-02T07:52:10.362Z,0.98
2023-04-02T07:54:46.124Z,1.27
2023-04-02T07:57:39.004Z,0.75
2023-04-02T08:05:37.006Z,1.00
2023-04-02T08:08:09.177Z,0.80
2023-04-02T08:10:36.036Z,0.95
2023-04-02T08:13:09.201Z,1.85
2023-04-02T08:15:35.967Z,1.30
2023-04-02T08:18:12.364Z,0.82
2023-04-02T08:20:42.191Z,0.95
2023-04-02T08:23:31.961Z,1.52
2023-04-02T08:25:58.489Z,1.27
2023-04-02T08:28:28.749Z,1.20
2023-04-02T08:30:55.565Z,0.98
2023-04-02T08:33:22.187Z,1.15
2023-04-02T08:35:50.687Z,0.73
2023-04-02T08:38:49.535Z,0.40
2023-04-02T08:41:24.032Z,0.52
2023-04-02T08:47:41.023Z,0.80
2023-04-02T08:50:29.066Z,0.70
2023-04-02T08:53:01.638Z,0.70
2023-04-02T08:55:53.123Z,0.65
2023-04-02T08:58:44.190Z,0.73
2023-04-02T09:01:24.453Z,0.80
2023-04-02T09:03:54.679Z,0.57
2023-04-02T09:06:23.066Z,0.90
2023-04-02T09:09:01.285Z,0.30
2023-04-02T09:11:57.174Z,0.40
2023-04-02T09:14:36.006Z,0.45
2023-04-02T09:17:16.880Z,0.57
2023-04-02T09:19:52.833Z,0.80
2023-04-02T09:22:32.224Z,0.82
2023-04-02T09:25:04.290Z,0.30
2023-04-02T09:27:33.650Z,0.50
2023-04-02T09:30:18.729Z,0.22
2023-04-02T09:32:52.523Z,0.22
2023-04-02T09:35:30.540Z,0.55
2023-04-02T09:38:07.471Z,0.60
2023-04-02T09:41:19.312Z,0.40
2023-04-02T09:46:31.619Z,0.22
2023-04-02T09:49:01.472Z,0.73
2023-04-02T09:51:34.345Z,0.40
2023-04-02T09:54:03.753Z,0.38
2023-04-02T09:59:22.982Z,0.22
2023-04-02T10:02:22.227Z,0.20
2023-04-02T10:05:39.864Z,0.30
2023-04-02T10:08:30.044Z,0.20
2023-04-02T10:11:52.518Z,0.38
2023-04-02T10:23:31.490Z,0.22
2023-04-02T10:26:30.089Z,0.30
2023-04-02T10:29:26.370Z,0.22
2023-04-02T10:32:29.673Z,0.20
2023-04-02T10:35:27.646Z,0.10
2023-04-02T10:45:32.956Z,0.20
2023-04-02T10:53:19.861Z,0.30
2023-04-02T10:56:04.096Z,0.25
2023-04-02T10:58:49.233Z,0.52
2023-04-02T11:01:28.829Z,0.20
2023-04-02T11:04:28.697Z,0.20
2023-04-02T11:07:13.319Z,0.40
2023-04-02T11:09:47.865Z,0.30
2023-04-02T11:12:42.202Z,0.35
2023-04-02T11:17:47.197Z,0.52
2023-04-02T11:20:43.930Z,0.20
2023-04-02T11:23:13.715Z,0.43
2023-04-02T11:25:43.511Z,0.20
2023-04-02T11:28:35.891Z,0.22
2023-04-02T11:31:05.304Z,0.20
2023-04-02T11:33:38.429Z,0.22
2023-04-02T11:36:44.469Z,0.32
2023-04-02T11:39:17.344Z,0.32
2023-04-02T11:42:26.637Z,0.10
2023-04-02T11:44:54.710Z,0.32
2023-04-02T11:47:26.304Z,0.30
2023-04-02T11:49:56.078Z,0.20
2023-04-02T11:55:03.230Z,0.32
2023-04-02T11:58:20.590Z,0.55
2023-04-02T12:01:02.305Z,0.22
2023-04-02T12:03:53.593Z,0.28
2023-04-02T12:06:54.237Z,0.20
2023-04-02T12:09:49.697Z,0.38
2023-04-02T12:12:31.486Z,0.20
2023-04-02T12:14:58.715Z,0.20
2023-04-02T12:17:38.894Z,0.20
2023-04-02T12:20:09.438Z,0.20
2023-04-02T12:22:47.329Z,0.20
2023-04-02T12:25:32.712Z,0.20
2023-04-02T12:28:19.957Z,0.40
2023-04-02T12:30:48.186Z,0.20
2023-04-02T12:33:27.731Z,0.20
2023-04-02T12:36:02.529Z,0.30
2023-04-02T12:38:53.728Z,0.30
2023-04-02T12:41:27.365Z,0.55
2023-04-02T12:44:02.169Z,0.40
2023-04-02T12:46:30.648Z,0.50
2023-04-02T12:49:43.524Z,0.47
2023-04-02T12:52:21.319Z,0.30
2023-04-02T12:54:59.578Z,0.30
2023-04-02T12:57:26.192Z,0.30
2023-04-02T12:59:58.351Z,0.30
2023-04-02T13:02:27.991Z,0.32
2023-04-02T13:05:01.432Z,0.13
2023-04-02T13:07:33.405Z,0.20
2023-04-02T13:10:05.430Z,0.10
2023-04-02T13:12:36.107Z,0.30
2023-04-02T13:15:05.767Z,0.20
2023-04-02T13:17:39.973Z,0.20
2023-04-02T13:20:38.538Z,0.28
2023-04-02T13:23:29.676Z,0.30
2023-04-02T13:25:58.919Z,0.50
2023-04-02T13:30:53.221Z,0.20
2023-04-02T13:33:20.463Z,0.20
2023-04-02T13:35:48.295Z,0.50
2023-04-02T13:38:14.745Z,1.00
2023-04-02T13:40:41.378Z,0.20
2023-04-02T13:43:11.824Z,0.20
2023-04-02T13:45:40.939Z,0.32
2023-04-02T13:48:14.104Z,0.10
2023-04-02T13:50:41.313Z,0.20
2023-04-02T13:53:13.642Z,0.10
2023-04-02T13:55:42.771Z,0.38
2023-04-02T13:58:10.862Z,0.20
2023-04-02T14:00:37.883Z,0.10
2023-04-02T14:03:11.338Z,0.22
2023-04-02T14:05:42.535Z,0.20
2023-04-02T14:08:10.959Z,0.22
2023-04-02T14:10:54.260Z,0.25
2023-04-02T14:13:37.119Z,0.15
2023-04-02T14:16:31.309Z,0.10
2023-04-02T14:19:28.063Z,0.32
2023-04-02T14:22:30.517Z,0.10
2023-04-02T14:25:36.584Z,0.25
2023-04-02T14:28:40.306Z,0.20
2023-04-02T14:31:34.155Z,0.20
2023-04-02T14:34:22.416Z,0.28
2023-04-02T14:37:04.380Z,0.20
2023-04-02T14:39:57.535Z,0.43
2023-04-02T14:42:46.227Z,0.30
2023-04-02T14:45:28.422Z,0.22
2023-04-02T14:48:02.429Z,0.20
2023-04-02T14:50:42.746Z,0.30
2023-04-02T14:53:34.719Z,0.30
2023-04-02T14:56:08.004Z,0.30
2023-04-02T14:58:39.062Z,0.20
2023-04-02T15:01:13.949Z,0.20
2023-04-02T15:03:51.788Z,0.40
2023-04-02T15:06:26.218Z,0.57
2023-04-02T15:09:09.814Z,0.10
2023-04-02T15:11:39.344Z,0.20
2023-04-02T15:14:23.510Z,0.10
2023-04-02T15:16:49.970Z,0.10
2023-04-02T15:19:18.147Z,0.20
2023-04-02T15:22:20.389Z,0.20
2023-04-02T15:24:57.649Z,0.10
2023-04-02T15:27:27.376Z,0.85
2023-04-02T15:30:07.373Z,0.13
2023-04-02T15:32:33.897Z,0.20
2023-04-02T15:35:23.315Z,0.20
2023-04-02T15:37:54.170Z,0.10
2023-04-02T15:40:28.805Z,0.20
2023-04-02T15:43:20.271Z,0.10
2023-04-02T15:46:03.764Z,0.20
2023-04-02T15:48:48.492Z,0.15
2023-04-02T15:51:36.989Z,0.10
2023-04-02T15:54:19.541Z,0.30
2023-04-02T15:57:11.745Z,0.10
2023-04-02T16:00:09.766Z,0.10
2023-04-02T16:03:20.820Z,0.50
2023-04-02T16:06:16.698Z,0.10
2023-04-02T16:09:08.068Z,1.23
2023-04-02T16:11:43.780Z,0.40
2023-04-02T16:14:22.621Z,0.50
2023-04-02T16:16:52.444Z,0.32
2023-04-02T16:19:28.183Z,0.10
2023-04-02T16:22:19.261Z,0.10
2023-04-02T16:24:49.971Z,0.20
2023-04-02T16:27:24.111Z,0.13
2023-04-02T16:30:23.392Z,0.10
2023-04-02T16:33:01.498Z,0.10
2023-04-02T16:36:07.092Z,0.20
2023-04-02T16:38:50.316Z,0.15
2023-04-02T16:41:28.543Z,0.30
2023-04-02T16:44:22.806Z,0.20
2023-04-02T16:47:12.714Z,0.10
2023-04-02T16:49:57.645Z,0.30
2023-04-02T16:52:35.933Z,0.20
2023-04-02T16:55:23.467Z,0.10
2023-04-02T16:58:18.507Z,0.20
2023-04-02T17:01:15.591Z,0.20
2023-04-02T17:03:44.939Z,0.20
2023-04-02T17:06:29.583Z,0.40
2023-04-02T17:09:16.424Z,0.20
2023-04-02T17:11:49.262Z,0.25
2023-04-02T17:14:29.575Z,0.13
2023-04-02T17:17:01.491Z,0.20
2023-04-02T17:19:29.660Z,0.10
2023-04-02T17:22:04.940Z,0.30
2023-04-02T17:24:41.981Z,0.22
2023-04-02T17:27:17.690Z,0.13
2023-04-02T17:29:47.332Z,0.20
2023-04-02T17:32:27.313Z,0.45
2023-04-02T17:34:55.585Z,0.82
2023-04-02T17:37:39.723Z,0.30
2023-04-02T17:40:19.174Z,0.35
2023-04-02T17:43:13.650Z,0.30
2023-04-02T17:45:47.770Z,0.32
2023-04-02T17:48:26.729Z,0.30
2023-04-02T17:50:55.990Z,0.40
2023-04-02T17:53:37.853Z,0.35
2023-04-02T17:56:38.476Z,0.40
2023-04-02T17:59:21.649Z,0.30
2023-04-02T18:02:04.854Z,0.38
2023-04-02T18:04:46.578Z,0.20
2023-04-02T18:07:28.272Z,0.70
2023-04-02T18:10:39.524Z,0.47
2023-04-02T18:13:14.933Z,0.38
2023-04-02T18:16:08.891Z,0.38
2023-04-02T18:18:46.827Z,0.30
2023-04-02T18:21:24.529Z,0.63
2023-04-02T18:24:12.614Z,0.40
2023-04-02T18:27:21.364Z,0.20
2023-04-02T18:30:04.273Z,0.20
2023-04-02T18:32:55.018Z,0.32
2023-04-02T18:35:34.549Z,0.40
2023-04-02T18:38:01.671Z,0.28
2023-04-02T18:40:49.673Z,0.20
2023-04-02T18:43:36.870Z,0.22
2023-04-02T18:46:28.249Z,0.47
2023-04-02T18:49:06.376Z,0.30
2023-04-02T18:51:38.832Z,0.43
2023-04-02T18:54:24.010Z,0.35
2023-04-02T18:56:50.938Z,0.50
2023-04-02T18:59:44.664Z,0.17
2023-04-02T19:02:26.124Z,0.30
2023-04-02T19:05:04.241Z,0.40
2023-04-02T19:07:36.854Z,0.45
2023-04-02T19:10:20.887Z,0.10
2023-04-02T19:12:47.372Z,0.25
2023-04-02T19:15:20.111Z,0.20
2023-04-02T19:18:07.757Z,0.50
2023-04-02T19:21:00.858Z,0.20
2023-04-02T19:23:59.741Z,0.60
2023-04-02T19:26:34.926Z,0.20
2023-04-02T19:29:22.884Z,0.40
2023-04-02T19:34:46.145Z,0.50
2023-04-02T19:37:27.346Z,1.10
2023-04-02T19:40:19.824Z,0.52
2023-04-02T19:42:49.225Z,0.32
2023-04-02T19:45:33.468Z,0.22
2023-04-02T19:48:09.880Z,0.25
2023-04-02T19:50:37.021Z,0.70
2023-04-02T19:53:03.521Z,0.43
2023-04-02T19:55:30.455Z,0.43
2023-04-02T19:58:08.489Z,1.15
2023-04-02T20:00:43.623Z,0.82
2023-04-02T20:03:10.244Z,0.65
2023-04-02T20:05:40.300Z,0.30
2023-04-02T20:08:06.864Z,0.40
2023-04-02T20:10:35.607Z,0.52
2023-04-02T20:13:02.854Z,0.30
2023-04-02T20:15:29.627Z,0.55
2023-04-02T20:17:56.190Z,0.38
2023-04-02T20:20:25.608Z,0.20
2023-04-02T20:22:52.118Z,0.95
2023-04-02T20:25:18.619Z,0.20
2023-04-02T20:27:45.844Z,0.30
2023-04-02T20:30:12.912Z,0.30
2023-04-02T20:32:40.447Z,0.20
2023-04-02T20:35:07.832Z,0.40
2023-04-02T20:37:35.176Z,0.10
2023-04-02T20:40:01.962Z,0.30
2023-04-02T20:42:28.683Z,0.10
2023-04-02T20:44:55.414Z,0.28
2023-04-02T20:47:24.910Z,0.20
2023-04-02T20:49:52.189Z,0.20
2023-04-02T20:52:18.627Z,0.10
2023-04-02T20:54:46.667Z,0.20
2023-04-02T20:57:15.617Z,0.10
2023-04-02T20:59:42.307Z,0.25
2023-04-02T21:02:11.679Z,0.73
2023-04-02T21:04:38.270Z,0.20
2023-04-02T21:07:04.792Z,0.30
2023-04-02T21:09:32.008Z,0.28
2023-04-02T21:11:59.269Z,0.25
2023-04-02T21:14:26.172Z,0.17
2023-04-02T21:16:52.925Z,0.13
2023-04-02T21:19:19.329Z,0.30
2023-04-02T21:21:45.809Z,0.40
2023-04-02T21:24:12.267Z,0.20
2023-04-02T21:26:41.187Z,0.10
2023-04-02T21:29:07.886Z,0.10
2023-04-02T21:31:37.225Z,0.17
2023-04-02T21:34:04.971Z,0.28
2023-04-02T21:36:37.062Z,0.10
2023-04-02T21:39:06.956Z,0.10
2023-04-02T21:41:36.353Z,0.35
2023-04-02T21:44:05.708Z,0.20
2023-04-02T21:46:36.488Z,0.20
2023-04-02T21:49:06.352Z,0.20
2023-04-02T21:51:34.834Z,0.10
2023-04-02T21:54:01.953Z,0.13
2023-04-02T21:56:34.414Z,0.20
2023-04-02T21:59:02.563Z,0.08
2023-04-02T22:01:34.855Z,0.20
2023-04-02T22:04:07.273Z,0.30
2023-04-02T22:06:40.944Z,0.10
2023-04-02T22:09:11.402Z,0.10
2023-04-02T22:14:10.035Z,0.20
2023-04-02T22:16:37.678Z,0.10
2023-04-02T22:19:15.623Z,0.20
2023-04-02T22:21:42.806Z,0.15
2023-04-02T22:24:16.115Z,0.10
2023-04-02T22:26:44.224Z,0.20
2023-04-02T22:29:11.154Z,0.20
2023-04-02T22:31:38.348Z,0.10
2023-04-02T22:34:06.107Z,0.10
2023-04-02T22:36:32.845Z,0.10
2023-04-02T22:39:00.328Z,0.20
2023-04-02T22:41:31.902Z,0.10
2023-04-02T22:44:01.728Z,0.10
2023-04-02T22:46:29.864Z,0.43
2023-04-02T22:48:56.949Z,0.10
2023-04-02T22:51:24.906Z,0.10
2023-04-02T22:53:54.108Z,0.20
2023-04-02T22:56:27.515Z,0.10
2023-04-02T22:58:54.097Z,0.10
2023-04-02T23:01:33.402Z,0.10
2023-04-02T23:04:00.531Z,0.10
2023-04-02T23:06:27.849Z,0.20
2023-04-02T23:08:54.438Z,0.10
2023-04-02T23:11:26.282Z,0.10
2023-04-02T23:13:56.537Z,0.10
2023-04-02T23:16:24.331Z,0.15
2023-04-02T23:18:50.969Z,0.10
2023-04-02T23:21:19.184Z,0.20
2023-04-02T23:23:46.450Z,0.10
2023-04-02T23:26:21.110Z,0.10
2023-04-02T23:28:48.919Z,0.10
2023-04-02T23:31:20.114Z,0.30
2023-04-02T23:33:46.847Z,0.10
2023-04-02T23:36:34.761Z,0.10
2023-04-02T23:39:11.244Z,0.15
2023-04-02T23:41:40.083Z,0.10
2023-04-02T23:44:07.151Z,0.10
2023-04-02T23:46:33.982Z,0.08
2023-04-02T23:49:03.737Z,0.20
2023-04-02T23:51:32.407Z,0.20
2023-04-02T23:53:59.296Z,0.10
2023-04-02T23:56:25.953Z,0.10
2023-04-02T23:58:52.617Z,0.32
